Terminal Aerodrome Forecast
Issued by NWS

Home | Current Version | Previous Version | Graphics & Text | Print | Product List | Glossary On
Versions: 1 2 3 4 5 6 7 8 9 10 11 12
000
FTUS45 KGGW 191131
TAFSDY
TAF
KSDY 191131Z 1912/2012 VRB05KT P6SM -SHRA OVC090
     FM191300 26008KT P6SM -SHRA OVC070
     FM191600 28015KT P6SM BKN050
     FM200000 28011KT P6SM BKN100
     FM200400 26007KT P6SM SCT100=

USA.gov is the U.S. government's official web portal to all federal, state and local government web resources and services.